createdAt,value
2019-01-05T00:00:03.573Z,1024.72
2019-01-05T00:01:03.567Z,1024.74
2019-01-05T00:02:03.578Z,1024.70
2019-01-05T00:03:03.589Z,1024.71
2019-01-05T00:04:03.597Z,1024.76
2019-01-05T00:05:03.619Z,1024.73
2019-01-05T00:06:03.624Z,1024.70
2019-01-05T00:07:03.631Z,1024.67
2019-01-05T00:08:03.638Z,1024.68
2019-01-05T00:09:03.649Z,1024.66
2019-01-05T00:10:03.658Z,1024.62
2019-01-05T00:11:03.676Z,1024.62
2019-01-05T00:12:03.681Z,1024.62
2019-01-05T00:13:03.689Z,1024.54
2019-01-05T00:14:03.702Z,1024.60
2019-01-05T00:15:03.717Z,1024.58
2019-01-05T00:16:03.723Z,1024.58
2019-01-05T00:17:03.732Z,1024.56
2019-01-05T00:18:03.744Z,1024.56
2019-01-05T00:19:03.762Z,1024.52
2019-01-05T00:20:03.762Z,1024.50
2019-01-05T00:21:03.776Z,1024.47
2019-01-05T00:22:03.787Z,1024.50
2019-01-05T00:23:03.791Z,1024.50
2019-01-05T00:24:03.802Z,1024.50
2019-01-05T00:25:03.817Z,1024.49
2019-01-05T00:26:03.822Z,1024.46
2019-01-05T00:27:03.846Z,1024.46
2019-01-05T00:28:03.847Z,1024.46
2019-01-05T00:29:03.867Z,1024.45
2019-01-05T00:30:03.882Z,1024.46
2019-01-05T00:31:03.876Z,1024.44
2019-01-05T00:32:03.888Z,1024.42
2019-01-05T00:33:03.901Z,1024.43
2019-01-05T00:34:03.907Z,1024.46
2019-01-05T00:35:03.917Z,1024.43
2019-01-05T00:36:03.926Z,1024.41
2019-01-05T00:37:03.938Z,1024.39
2019-01-05T00:38:03.946Z,1024.37
2019-01-05T00:39:03.958Z,1024.37
2019-01-05T00:40:03.968Z,1024.36
2019-01-05T00:41:03.979Z,1024.35
2019-01-05T00:42:03.990Z,1024.33
2019-01-05T00:43:03.999Z,1024.36
2019-01-05T00:44:04.008Z,1024.33
2019-01-05T00:45:04.016Z,1024.33
2019-01-05T00:46:04.030Z,1024.32
2019-01-05T00:47:04.040Z,1024.37
2019-01-05T00:48:04.048Z,1024.34
2019-01-05T00:49:04.061Z,1024.34
2019-01-05T00:50:04.070Z,1024.30
2019-01-05T00:51:04.087Z,1024.28
2019-01-05T00:52:04.095Z,1024.27
2019-01-05T00:53:04.102Z,1024.34
2019-01-05T00:54:04.112Z,1024.31
2019-01-05T00:55:04.119Z,1024.21
2019-01-05T00:56:04.150Z,1024.25
2019-01-05T00:57:04.140Z,1024.18
2019-01-05T00:58:04.154Z,1024.19
2019-01-05T00:59:04.160Z,1024.21
2019-01-05T01:00:04.178Z,1024.22
2019-01-05T01:01:04.184Z,1024.19
2019-01-05T01:02:04.195Z,1024.20
2019-01-05T01:03:04.205Z,1024.13
2019-01-05T01:04:04.214Z,1024.13
2019-01-05T01:05:04.224Z,1024.10
2019-01-05T01:06:04.236Z,1024.14
2019-01-05T01:07:04.271Z,1024.13
2019-01-05T01:08:04.254Z,1024.15
2019-01-05T01:09:04.320Z,1024.11
2019-01-05T01:10:04.277Z,1024.11
2019-01-05T01:11:04.390Z,1024.11
2019-01-05T01:12:04.296Z,1024.16
2019-01-05T01:13:04.307Z,1024.10
2019-01-05T01:14:04.315Z,1024.18
2019-01-05T01:15:04.331Z,1024.12
2019-01-05T01:16:04.337Z,1024.15
2019-01-05T01:17:04.347Z,1024.12
2019-01-05T01:18:04.357Z,1024.13
2019-01-05T01:19:04.371Z,1024.14
2019-01-05T01:20:04.420Z,1024.13
2019-01-05T01:21:04.407Z,1024.13
2019-01-05T01:22:04.487Z,1024.10
2019-01-05T01:23:04.411Z,1024.08
2019-01-05T01:24:04.431Z,1024.04
2019-01-05T01:25:04.437Z,1024.05
2019-01-05T01:26:04.436Z,1024.03
2019-01-05T01:27:04.444Z,1024.05
2019-01-05T01:28:04.450Z,1023.99
2019-01-05T01:29:04.495Z,1023.90
2019-01-05T01:30:04.473Z,1023.92
2019-01-05T01:31:04.488Z,1023.96
2019-01-05T01:32:04.497Z,1023.93
2019-01-05T01:33:04.566Z,1023.92
2019-01-05T01:34:04.525Z,1023.89
2019-01-05T01:35:04.526Z,1023.88
2019-01-05T01:36:04.536Z,1023.84
2019-01-05T01:37:04.544Z,1023.85
2019-01-05T01:38:04.556Z,1023.78
2019-01-05T01:39:04.575Z,1023.83
2019-01-05T01:40:04.575Z,1023.75
2019-01-05T01:41:04.595Z,1023.74
2019-01-05T01:42:04.598Z,1023.77
2019-01-05T01:43:04.610Z,1023.75
2019-01-05T01:44:04.615Z,1023.70
2019-01-05T01:45:04.629Z,1023.72
2019-01-05T01:46:04.649Z,1023.73
2019-01-05T01:47:04.650Z,1023.67
2019-01-05T01:48:04.661Z,1023.67
2019-01-05T01:49:04.720Z,1023.72
2019-01-05T01:50:04.680Z,1023.66
2019-01-05T01:51:04.687Z,1023.73
2019-01-05T01:52:04.699Z,1023.69
2019-01-05T01:53:04.710Z,1023.65
2019-01-05T01:54:04.726Z,1023.62
2019-01-05T01:55:04.731Z,1023.54
2019-01-05T01:56:04.756Z,1023.62
2019-01-05T01:57:04.754Z,1023.58
2019-01-05T01:58:04.762Z,1023.64
2019-01-05T01:59:04.776Z,1023.58
2019-01-05T02:00:04.781Z,1023.58
2019-01-05T02:01:04.789Z,1023.50
2019-01-05T02:02:04.800Z,1023.43
2019-01-05T02:03:05.971Z,1023.42
2019-01-05T02:04:05.127Z,1023.46
2019-01-05T02:05:04.830Z,1023.38
2019-01-05T02:06:04.842Z,1023.41
2019-01-05T02:07:04.855Z,1023.40
2019-01-05T02:08:04.861Z,1023.39
2019-01-05T02:09:04.874Z,1023.34
2019-01-05T02:10:04.882Z,1023.34
2019-01-05T02:11:04.898Z,1023.32
2019-01-05T02:12:04.907Z,1023.40
2019-01-05T02:13:04.915Z,1023.43
2019-01-05T02:14:04.941Z,1023.38
2019-01-05T02:15:04.949Z,1023.46
2019-01-05T02:16:04.947Z,1023.45
2019-01-05T02:17:04.977Z,1023.52
2019-01-05T02:18:04.973Z,1023.50
2019-01-05T02:19:04.981Z,1023.50
2019-01-05T02:20:04.986Z,1023.41
2019-01-05T02:21:04.998Z,1023.43
2019-01-05T02:22:05.023Z,1023.40
2019-01-05T02:23:05.025Z,1023.41
2019-01-05T02:24:05.039Z,1023.42
2019-01-05T02:25:05.038Z,1023.35
2019-01-05T02:26:05.052Z,1023.33
2019-01-05T02:27:05.060Z,1023.33
2019-01-05T02:28:05.066Z,1023.32
2019-01-05T02:29:05.076Z,1023.25
2019-01-05T02:30:05.094Z,1023.27
2019-01-05T02:31:05.105Z,1023.24
2019-01-05T02:32:05.143Z,1023.21
2019-01-05T02:33:05.139Z,1023.21
2019-01-05T02:34:05.135Z,1023.23
2019-01-05T02:35:05.143Z,1023.23
2019-01-05T02:36:05.155Z,1023.21
2019-01-05T02:37:05.167Z,1023.15
2019-01-05T02:38:05.173Z,1023.17
2019-01-05T02:39:05.184Z,1023.15
2019-01-05T02:40:05.198Z,1023.13
2019-01-05T02:41:05.204Z,1023.11
2019-01-05T02:42:05.215Z,1023.17
2019-01-05T02:43:05.259Z,1023.10
2019-01-05T02:44:05.236Z,1023.14
2019-01-05T02:45:05.248Z,1023.05
2019-01-05T02:46:05.253Z,1023.04
2019-01-05T02:47:05.274Z,1022.99
2019-01-05T02:48:05.274Z,1023.04
2019-01-05T02:49:05.285Z,1023.06
2019-01-05T02:50:05.296Z,1023.05
2019-01-05T02:51:05.316Z,1023.02
2019-01-05T02:52:05.317Z,1023.04
2019-01-05T02:53:05.327Z,1023.02
2019-01-05T02:54:05.351Z,1023.06
2019-01-05T02:55:05.360Z,1023.05
2019-01-05T02:56:05.357Z,1023.06
2019-01-05T02:57:05.370Z,1023.04
2019-01-05T02:58:05.383Z,1023.06
2019-01-05T02:59:05.391Z,1023.02
2019-01-05T03:00:05.404Z,1023.06
2019-01-05T03:01:05.409Z,1023.04
2019-01-05T03:02:05.420Z,1023.04
2019-01-05T03:03:05.639Z,1023.06
2019-01-05T03:04:05.446Z,1023.07
2019-01-05T03:05:05.452Z,1023.02
2019-01-05T03:06:05.464Z,1023.02
2019-01-05T03:07:05.470Z,1023.00
2019-01-05T03:08:05.494Z,1022.97
2019-01-05T03:09:05.489Z,1022.95
2019-01-05T03:10:05.516Z,1022.92
2019-01-05T03:11:05.523Z,1022.89
2019-01-05T03:12:05.529Z,1022.91
2019-01-05T03:13:05.534Z,1022.87
2019-01-05T03:14:05.546Z,1022.86
2019-01-05T03:15:05.573Z,1022.75
2019-01-05T03:16:05.580Z,1022.75
2019-01-05T03:17:05.595Z,1022.68
2019-01-05T03:18:05.587Z,1022.74
2019-01-05T03:19:05.599Z,1022.69
2019-01-05T03:20:05.604Z,1022.66
2019-01-05T03:21:05.617Z,1022.69
2019-01-05T03:22:05.630Z,1022.66
2019-01-05T03:23:05.647Z,1022.67
2019-01-05T03:24:05.666Z,1022.65
2019-01-05T03:25:05.665Z,1022.67
2019-01-05T03:26:05.670Z,1022.66
2019-01-05T03:27:05.685Z,1022.64
2019-01-05T03:28:05.692Z,1022.65
2019-01-05T03:29:05.707Z,1022.70
2019-01-05T03:30:05.714Z,1022.62
2019-01-05T03:31:05.732Z,1022.64
2019-01-05T03:32:05.735Z,1022.61
2019-01-05T03:33:05.744Z,1022.59
2019-01-05T03:34:05.754Z,1022.57
2019-01-05T03:35:05.764Z,1022.57
2019-01-05T03:36:05.791Z,1022.52
2019-01-05T03:37:05.804Z,1022.44
2019-01-05T03:38:05.799Z,1022.45
2019-01-05T03:39:05.806Z,1022.47
2019-01-05T03:40:05.814Z,1022.43
2019-01-05T03:41:05.927Z,1022.45
2019-01-05T03:42:05.841Z,1022.46
2019-01-05T03:43:05.849Z,1022.46
2019-01-05T03:44:05.858Z,1022.40
2019-01-05T03:45:05.867Z,1022.41
2019-01-05T03:46:05.888Z,1022.42
2019-01-05T03:47:05.887Z,1022.39
2019-01-05T03:48:05.900Z,1022.35
2019-01-05T03:49:05.920Z,1022.36
2019-01-05T03:50:05.942Z,1022.35
2019-01-05T03:51:05.946Z,1022.30
2019-01-05T03:52:05.944Z,1022.34
2019-01-05T03:53:05.953Z,1022.32
2019-01-05T03:54:05.964Z,1022.37
2019-01-05T03:55:05.976Z,1022.33
2019-01-05T03:56:05.983Z,1022.30
2019-01-05T03:57:05.997Z,1022.30
2019-01-05T03:58:06.005Z,1022.24
2019-01-05T03:59:06.023Z,1022.30
2019-01-05T04:00:06.027Z,1022.21
2019-01-05T04:01:06.038Z,1022.24
2019-01-05T04:02:06.054Z,1022.24
2019-01-05T04:03:06.061Z,1022.22
2019-01-05T04:04:06.084Z,1022.18
2019-01-05T04:05:06.089Z,1022.21
2019-01-05T04:06:06.090Z,1022.19
2019-01-05T04:07:06.115Z,1022.16
2019-01-05T04:08:06.361Z,1022.23
2019-01-05T04:09:06.123Z,1022.17
2019-01-05T04:10:06.133Z,1022.14
2019-01-05T04:11:06.145Z,1022.09
2019-01-05T04:12:06.151Z,1022.09
2019-01-05T04:13:06.164Z,1022.02
2019-01-05T04:14:06.185Z,1021.92
2019-01-05T04:15:06.188Z,1021.91
2019-01-05T04:16:06.205Z,1021.86
2019-01-05T04:17:06.309Z,1021.83
2019-01-05T04:18:06.219Z,1021.87
2019-01-05T04:19:06.230Z,1021.91
2019-01-05T04:20:06.239Z,1021.90
2019-01-05T04:21:06.260Z,1021.98
2019-01-05T04:22:06.260Z,1021.86
2019-01-05T04:23:06.270Z,1021.86
2019-01-05T04:24:06.290Z,1021.83
2019-01-05T04:25:06.293Z,1021.87
2019-01-05T04:26:06.324Z,1021.93
2019-01-05T04:27:06.316Z,1021.85
2019-01-05T04:28:06.326Z,1021.87
2019-01-05T04:29:06.335Z,1021.90
2019-01-05T04:30:06.347Z,1021.91
2019-01-05T04:31:06.357Z,1021.90
2019-01-05T04:32:06.367Z,1021.87
2019-01-05T04:33:06.382Z,1021.87
2019-01-05T04:34:06.400Z,1021.85
2019-01-05T04:35:06.403Z,1021.86
2019-01-05T04:36:06.411Z,1021.79
2019-01-05T04:37:06.420Z,1021.86
2019-01-05T04:38:06.434Z,1021.79
2019-01-05T04:39:06.445Z,1021.80
2019-01-05T04:40:06.452Z,1021.83
2019-01-05T04:41:06.462Z,1021.79
2019-01-05T04:42:06.490Z,1021.76
2019-01-05T04:43:06.497Z,1021.78
2019-01-05T04:44:06.495Z,1021.78
2019-01-05T04:45:06.517Z,1021.79
2019-01-05T04:46:06.519Z,1021.74
2019-01-05T04:47:06.530Z,1021.80
2019-01-05T04:48:06.540Z,1021.77
2019-01-05T04:49:06.555Z,1021.75
2019-01-05T04:50:06.574Z,1021.76
2019-01-05T04:51:06.574Z,1021.74
2019-01-05T04:52:06.582Z,1021.73
2019-01-05T04:53:06.611Z,1021.72
2019-01-05T04:54:06.605Z,1021.69
2019-01-05T04:55:06.631Z,1021.70
2019-01-05T04:56:06.631Z,1021.70
2019-01-05T04:57:06.637Z,1021.71
2019-01-05T04:58:06.653Z,1021.56
2019-01-05T04:59:06.662Z,1021.61
2019-01-05T05:00:06.672Z,1021.61
2019-01-05T05:01:06.685Z,1021.61
2019-01-05T05:02:06.700Z,1021.63
2019-01-05T05:03:06.708Z,1021.62
2019-01-05T05:04:06.803Z,1021.59
2019-01-05T05:05:06.735Z,1021.56
2019-01-05T05:06:06.739Z,1021.54
2019-01-05T05:07:06.750Z,1021.57
2019-01-05T05:08:06.764Z,1021.58
2019-01-05T05:09:06.769Z,1021.54
2019-01-05T05:10:06.783Z,1021.54
2019-01-05T05:11:06.794Z,1021.52
2019-01-05T05:12:06.803Z,1021.55
2019-01-05T05:13:06.831Z,1021.55
2019-01-05T05:14:06.824Z,1021.56
2019-01-05T05:15:06.840Z,1021.54
2019-01-05T05:16:06.845Z,1021.50
2019-01-05T05:17:06.856Z,1021.52
2019-01-05T05:18:06.869Z,1021.53
2019-01-05T05:19:06.885Z,1021.55
2019-01-05T05:20:06.892Z,1021.52
2019-01-05T05:21:06.903Z,1021.53
2019-01-05T05:22:06.909Z,1021.51
2019-01-05T05:23:06.923Z,1021.45
2019-01-05T05:24:06.947Z,1021.52
2019-01-05T05:25:06.946Z,1021.59
2019-01-05T05:26:06.957Z,1021.60
2019-01-05T05:27:06.971Z,1021.58
2019-01-05T05:28:06.977Z,1021.57
2019-01-05T05:29:07.001Z,1021.58
2019-01-05T05:30:07.031Z,1021.58
2019-01-05T05:31:07.009Z,1021.62
2019-01-05T05:32:07.021Z,1021.53
2019-01-05T05:33:07.037Z,1021.60
2019-01-05T05:34:07.057Z,1021.61
2019-01-05T05:35:07.055Z,1021.56
2019-01-05T05:36:07.061Z,1021.55
2019-01-05T05:37:07.087Z,1021.56
2019-01-05T05:38:07.093Z,1021.52
2019-01-05T05:39:07.099Z,1021.55
2019-01-05T05:40:07.117Z,1021.51
2019-01-05T05:41:07.125Z,1021.46
2019-01-05T05:42:07.138Z,1021.51
2019-01-05T05:43:07.172Z,1021.41
2019-01-05T05:44:07.156Z,1021.39
2019-01-05T05:45:07.178Z,1021.36
2019-01-05T05:46:07.180Z,1021.35
2019-01-05T05:47:07.191Z,1021.36
2019-01-05T05:48:07.198Z,1021.33
2019-01-05T05:49:07.207Z,1021.28
2019-01-05T05:50:07.218Z,1021.26
2019-01-05T05:51:07.239Z,1021.24
2019-01-05T05:52:07.238Z,1021.19
2019-01-05T05:53:07.251Z,1021.26
2019-01-05T05:54:07.266Z,1021.28
2019-01-05T05:55:07.280Z,1021.31
2019-01-05T05:56:07.283Z,1021.30
2019-01-05T05:57:07.301Z,1021.30
2019-01-05T05:58:07.307Z,1021.33
2019-01-05T05:59:07.323Z,1021.38
2019-01-05T06:00:07.330Z,1021.38
2019-01-05T06:01:07.341Z,1021.37
2019-01-05T06:02:07.355Z,1021.38
2019-01-05T06:03:07.363Z,1021.34
2019-01-05T06:04:07.371Z,1021.40
2019-01-05T06:05:07.383Z,1021.42
2019-01-05T06:06:07.403Z,1021.44
2019-01-05T06:07:07.402Z,1021.39
2019-01-05T06:08:07.419Z,1021.39
2019-01-05T06:09:07.428Z,1021.38
2019-01-05T06:10:07.460Z,1021.40
2019-01-05T06:11:07.448Z,1021.47
2019-01-05T06:12:07.457Z,1021.44
2019-01-05T06:13:07.471Z,1021.38
2019-01-05T06:14:07.481Z,1021.43
2019-01-05T06:15:07.497Z,1021.44
2019-01-05T06:16:07.549Z,1021.42
2019-01-05T06:17:07.540Z,1021.42
2019-01-05T06:18:07.529Z,1021.46
2019-01-05T06:19:07.538Z,1021.48
2019-01-05T06:20:07.548Z,1021.51
2019-01-05T06:21:07.564Z,1021.51
2019-01-05T06:22:07.571Z,1021.54
2019-01-05T06:23:07.579Z,1021.61
2019-01-05T06:24:07.592Z,1021.60
2019-01-05T06:25:07.602Z,1021.60
2019-01-05T06:26:07.614Z,1021.50
2019-01-05T06:27:07.624Z,1021.67
2019-01-05T06:28:07.638Z,1021.60
2019-01-05T06:29:07.648Z,1021.60
2019-01-05T06:30:07.665Z,1021.60
2019-01-05T06:31:07.673Z,1021.61
2019-01-05T06:32:07.701Z,1021.63
2019-01-05T06:33:07.702Z,1021.62
2019-01-05T06:34:07.702Z,1021.63
2019-01-05T06:35:07.847Z,1021.58
2019-01-05T06:36:07.723Z,1021.60
2019-01-05T06:37:07.747Z,1021.55
2019-01-05T06:38:07.750Z,1021.60
2019-01-05T06:39:07.756Z,1021.64
2019-01-05T06:40:07.766Z,1021.57
2019-01-05T06:41:07.776Z,1021.63
2019-01-05T06:42:07.789Z,1021.61
2019-01-05T06:43:07.814Z,1021.57
2019-01-05T06:44:07.808Z,1021.60
2019-01-05T06:45:07.819Z,1021.59
2019-01-05T06:46:07.833Z,1021.55
2019-01-05T06:47:07.848Z,1021.59
2019-01-05T06:48:07.872Z,1021.58
2019-01-05T06:49:07.897Z,1021.60
2019-01-05T06:50:07.877Z,1021.57
2019-01-05T06:51:07.897Z,1021.58
2019-01-05T06:52:07.897Z,1021.58
2019-01-05T06:53:07.912Z,1021.61
2019-01-05T06:54:07.917Z,1021.58
2019-01-05T06:55:07.932Z,1021.57
2019-01-05T06:56:07.946Z,1021.63
2019-01-05T06:57:07.967Z,1021.63
2019-01-05T06:58:07.966Z,1021.67
2019-01-05T06:59:07.975Z,1021.62
2019-01-05T07:00:07.982Z,1021.62
2019-01-05T07:01:07.998Z,1021.67
2019-01-05T07:02:08.007Z,1021.69
2019-01-05T07:03:08.020Z,1021.69
2019-01-05T07:04:08.032Z,1021.73
2019-01-05T07:05:08.039Z,1021.73
2019-01-05T07:06:08.052Z,1021.72
2019-01-05T07:07:08.065Z,1021.76
2019-01-05T07:08:08.072Z,1021.73
2019-01-05T07:09:08.085Z,1021.76
2019-01-05T07:10:08.099Z,1021.74
2019-01-05T07:11:08.113Z,1021.70
2019-01-05T07:12:08.141Z,1021.73
2019-01-05T07:13:08.127Z,1021.72
2019-01-05T07:14:08.141Z,1021.78
2019-01-05T07:15:08.154Z,1021.73
2019-01-05T07:16:08.176Z,1021.76
2019-01-05T07:17:08.176Z,1021.80
2019-01-05T07:18:08.185Z,1021.79
2019-01-05T07:19:08.197Z,1021.78
2019-01-05T07:20:08.223Z,1021.78
2019-01-05T07:21:08.225Z,1021.80
2019-01-05T07:22:08.226Z,1021.81
2019-01-05T07:23:08.239Z,1021.77
2019-01-05T07:24:08.252Z,1021.76
2019-01-05T07:25:08.267Z,1021.77
2019-01-05T07:26:08.281Z,1021.73
2019-01-05T07:27:08.297Z,1021.82
2019-01-05T07:28:08.293Z,1021.80
2019-01-05T07:29:08.308Z,1021.81
2019-01-05T07:30:08.325Z,1021.80
2019-01-05T07:31:08.333Z,1021.81
2019-01-05T07:32:08.340Z,1021.84
2019-01-05T07:33:08.349Z,1021.82
2019-01-05T07:34:08.363Z,1021.88
2019-01-05T07:35:08.377Z,1021.89
2019-01-05T07:36:08.385Z,1021.93
2019-01-05T07:37:08.395Z,1021.90
2019-01-05T07:38:08.403Z,1021.92
2019-01-05T07:39:08.422Z,1021.96
2019-01-05T07:40:08.449Z,1022.06
2019-01-05T07:41:08.444Z,1021.98
2019-01-05T07:42:08.449Z,1021.93
2019-01-05T07:43:08.460Z,1022.07
2019-01-05T07:44:08.476Z,1022.06
2019-01-05T07:45:08.500Z,1022.07
2019-01-05T07:46:08.491Z,1022.10
2019-01-05T07:47:08.505Z,1022.07
2019-01-05T07:48:08.521Z,1022.14
2019-01-05T07:49:08.533Z,1022.10
2019-01-05T07:50:08.538Z,1022.19
2019-01-05T07:51:08.549Z,1022.13
2019-01-05T07:52:08.565Z,1022.14
2019-01-05T07:53:08.577Z,1022.15
2019-01-05T07:54:08.600Z,1022.15
2019-01-05T07:55:08.615Z,1022.16
2019-01-05T07:56:08.620Z,1022.18
2019-01-05T07:57:08.638Z,1022.22
2019-01-05T07:58:08.626Z,1022.23
2019-01-05T07:59:08.643Z,1022.17
2019-01-05T08:00:08.668Z,1022.19
2019-01-05T08:01:08.664Z,1022.22
2019-01-05T08:02:08.677Z,1022.20
2019-01-05T08:03:08.700Z,1022.19
2019-01-05T08:04:08.692Z,1022.18
2019-01-05T08:05:08.710Z,1022.19
2019-01-05T08:06:08.714Z,1022.22
2019-01-05T08:07:08.725Z,1022.20
2019-01-05T08:08:08.736Z,1022.28
2019-01-05T08:09:08.749Z,1022.28
2019-01-05T08:10:08.757Z,1022.27
2019-01-05T08:11:08.799Z,1022.31
2019-01-05T08:12:08.780Z,1022.28
2019-01-05T08:13:08.789Z,1022.28
2019-01-05T08:14:08.804Z,1022.13
2019-01-05T08:15:08.829Z,1022.32
2019-01-05T08:16:08.826Z,1022.24
2019-01-05T08:17:08.838Z,1022.27
2019-01-05T08:18:08.862Z,1022.30
2019-01-05T08:19:08.861Z,1022.23
2019-01-05T08:20:08.871Z,1022.26
2019-01-05T08:21:08.880Z,1022.23
2019-01-05T08:22:08.893Z,1022.27
2019-01-05T08:23:08.904Z,1022.31
2019-01-05T08:24:08.911Z,1022.26
2019-01-05T08:25:08.923Z,1022.22
2019-01-05T08:26:08.943Z,1022.35
2019-01-05T08:27:08.949Z,1022.31
2019-01-05T08:28:08.958Z,1022.29
2019-01-05T08:29:08.965Z,1022.13
2019-01-05T08:30:08.979Z,1022.27
2019-01-05T08:31:08.991Z,1022.35
2019-01-05T08:32:08.999Z,1022.32
2019-01-05T08:33:09.014Z,1022.32
2019-01-05T08:34:09.024Z,1022.26
2019-01-05T08:35:09.035Z,1022.33
2019-01-05T08:36:09.046Z,1022.28
2019-01-05T08:37:09.355Z,1022.24
2019-01-05T08:38:09.078Z,1022.30
2019-01-05T08:39:09.082Z,1022.25
2019-01-05T08:40:09.103Z,1022.25
2019-01-05T08:41:09.102Z,1022.28
2019-01-05T08:42:09.120Z,1022.26
2019-01-05T08:43:09.124Z,1022.26
2019-01-05T08:44:09.136Z,1022.31
2019-01-05T08:45:09.149Z,1022.29
2019-01-05T08:46:09.159Z,1022.30
2019-01-05T08:47:09.183Z,1022.39
2019-01-05T08:48:09.185Z,1022.31
2019-01-05T08:49:09.189Z,1022.39
2019-01-05T08:50:09.201Z,1022.37
2019-01-05T08:51:09.213Z,1022.40
2019-01-05T08:52:09.225Z,1022.40
2019-01-05T08:53:09.236Z,1022.38
2019-01-05T08:54:09.247Z,1022.42
2019-01-05T08:55:09.261Z,1022.38
2019-01-05T08:56:09.271Z,1022.37
2019-01-05T08:57:09.283Z,1022.43
2019-01-05T08:58:09.293Z,1022.46
2019-01-05T08:59:09.306Z,1022.44
2019-01-05T09:00:09.311Z,1022.39
2019-01-05T09:01:09.321Z,1022.42
2019-01-05T09:02:09.336Z,1022.47
2019-01-05T09:03:09.347Z,1022.42
2019-01-05T09:04:09.357Z,1022.38
2019-01-05T09:05:09.371Z,1022.36
2019-01-05T09:06:09.382Z,1022.42
2019-01-05T09:07:09.395Z,1022.42
2019-01-05T09:08:09.406Z,1022.45
2019-01-05T09:09:09.417Z,1022.39
2019-01-05T09:10:09.429Z,1022.45
2019-01-05T09:12:09.457Z,1022.39
2019-01-05T09:13:09.480Z,1022.41
2019-01-05T09:14:09.474Z,1022.43
2019-01-05T09:15:09.483Z,1022.46
2019-01-05T09:16:09.658Z,1022.53
2019-01-05T09:17:09.611Z,1022.48
2019-01-05T09:18:09.563Z,1022.47
2019-01-05T09:19:09.528Z,1022.55
2019-01-05T09:20:09.541Z,1022.53
2019-01-05T09:21:09.561Z,1022.49
2019-01-05T09:22:09.560Z,1022.51
2019-01-05T09:23:09.615Z,1022.51
2019-01-05T09:24:09.585Z,1022.56
2019-01-05T09:25:09.597Z,1022.52
2019-01-05T09:26:09.606Z,1022.49
2019-01-05T09:27:09.620Z,1022.52
2019-01-05T09:28:09.693Z,1022.54
2019-01-05T09:29:09.641Z,1022.47
2019-01-05T09:30:09.653Z,1022.48
2019-01-05T09:31:09.685Z,1022.48
2019-01-05T09:32:09.680Z,1022.54
2019-01-05T09:33:09.682Z,1022.49
2019-01-05T09:34:09.701Z,1022.48
2019-01-05T09:35:09.716Z,1022.46
2019-01-05T09:36:09.721Z,1022.51
2019-01-05T09:37:09.732Z,1022.51
2019-01-05T09:38:09.745Z,1022.45
2019-01-05T09:39:09.761Z,1022.48
2019-01-05T09:40:09.762Z,1022.54
2019-01-05T09:41:09.778Z,1022.46
2019-01-05T09:42:09.789Z,1022.53
2019-01-05T09:43:09.802Z,1022.51
2019-01-05T09:44:09.811Z,1022.50
2019-01-05T09:45:09.819Z,1022.48
2019-01-05T09:46:09.833Z,1022.51
2019-01-05T09:47:09.847Z,1022.49
2019-01-05T09:48:09.854Z,1022.51
2019-01-05T09:49:09.923Z,1022.51
2019-01-05T09:50:09.883Z,1022.48
2019-01-05T09:51:09.947Z,1022.46
2019-01-05T09:52:09.907Z,1022.45
2019-01-05T09:53:09.917Z,1022.49
2019-01-05T09:54:09.926Z,1022.50
2019-01-05T09:55:09.944Z,1022.48
2019-01-05T09:56:09.953Z,1022.45
2019-01-05T09:57:09.958Z,1022.48
2019-01-05T09:58:09.967Z,1022.45
2019-01-05T09:59:10.000Z,1022.45
2019-01-05T10:00:09.988Z,1022.45
2019-01-05T10:01:09.998Z,1022.48
2019-01-05T10:02:10.012Z,1022.48
2019-01-05T10:03:11.289Z,1022.46
2019-01-05T10:04:10.028Z,1022.35
2019-01-05T10:05:10.044Z,1022.42
2019-01-05T10:06:10.050Z,1022.47
2019-01-05T10:07:10.066Z,1022.50
2019-01-05T10:08:10.078Z,1022.49
2019-01-05T10:09:10.156Z,1022.47
2019-01-05T10:10:10.102Z,1022.45
2019-01-05T10:11:10.115Z,1022.48
2019-01-05T10:12:10.122Z,1022.48
2019-01-05T10:13:10.135Z,1022.49
2019-01-05T10:14:10.203Z,1022.42
2019-01-05T10:15:10.158Z,1022.51
2019-01-05T10:16:10.168Z,1022.38
2019-01-05T10:17:10.178Z,1022.44
2019-01-05T10:18:10.194Z,1022.47
2019-01-05T10:19:10.208Z,1022.49
2019-01-05T10:20:10.212Z,1022.47
2019-01-05T10:21:10.226Z,1022.50
2019-01-05T10:22:10.234Z,1022.47
2019-01-05T10:23:10.248Z,1022.51
2019-01-05T10:24:10.265Z,1022.43
2019-01-05T10:25:10.268Z,1022.44
2019-01-05T10:26:10.284Z,1022.54
2019-01-05T10:27:10.295Z,1022.48
2019-01-05T10:28:10.372Z,1022.49
2019-01-05T10:29:10.317Z,1022.47
2019-01-05T10:30:10.433Z,1022.46
2019-01-05T10:31:10.338Z,1022.53
2019-01-05T10:32:10.353Z,1022.48
2019-01-05T10:33:10.363Z,1022.48
2019-01-05T10:34:10.378Z,1022.45
2019-01-05T10:35:10.394Z,1022.44
2019-01-05T10:36:10.433Z,1022.44
2019-01-05T10:37:10.408Z,1022.40
2019-01-05T10:38:10.424Z,1022.46
2019-01-05T10:39:10.449Z,1022.45
2019-01-05T10:40:10.442Z,1022.42
2019-01-05T10:41:10.452Z,1022.35
2019-01-05T10:42:10.467Z,1022.37
2019-01-05T10:43:10.480Z,1022.37
2019-01-05T10:44:10.489Z,1022.35
2019-01-05T10:45:10.517Z,1022.34
2019-01-05T10:46:10.556Z,1022.28
2019-01-05T10:47:10.522Z,1022.30
2019-01-05T10:48:10.809Z,1022.25
2019-01-05T10:49:10.548Z,1022.26
2019-01-05T10:50:10.685Z,1022.22
2019-01-05T10:51:10.675Z,1022.24
2019-01-05T10:52:11.905Z,1022.22
2019-01-05T10:53:10.589Z,1022.24
2019-01-05T10:54:10.603Z,1022.22
2019-01-05T10:55:10.616Z,1022.16
2019-01-05T10:56:10.625Z,1022.18
2019-01-05T10:57:10.644Z,1022.15
2019-01-05T10:58:10.658Z,1022.12
2019-01-05T10:59:10.661Z,1022.05
2019-01-05T11:00:10.678Z,1022.07
2019-01-05T11:01:10.685Z,1022.10
2019-01-05T11:02:10.699Z,1022.17
2019-01-05T11:03:10.711Z,1022.16
2019-01-05T11:04:10.725Z,1022.10
2019-01-05T11:05:10.733Z,1022.06
2019-01-05T11:06:10.744Z,1022.08
2019-01-05T11:07:10.756Z,1022.00
2019-01-05T11:08:10.767Z,1022.01
2019-01-05T11:09:10.779Z,1021.95
2019-01-05T11:10:10.790Z,1022.04
2019-01-05T11:11:10.802Z,1022.03
2019-01-05T11:12:10.818Z,1022.08
2019-01-05T11:13:10.826Z,1022.07
2019-01-05T11:14:10.835Z,1022.12
2019-01-05T11:15:10.849Z,1022.06
2019-01-05T11:16:10.862Z,1022.07
2019-01-05T11:17:10.879Z,1022.07
2019-01-05T11:18:10.884Z,1022.04
2019-01-05T11:19:10.897Z,1022.06
2019-01-05T11:20:10.906Z,1022.01
2019-01-05T11:21:10.971Z,1022.06
2019-01-05T11:22:10.929Z,1022.05
2019-01-05T11:23:10.942Z,1022.06
2019-01-05T11:24:10.954Z,1022.06
2019-01-05T11:25:10.963Z,1022.06
2019-01-05T11:26:10.976Z,1022.11
2019-01-05T11:27:10.988Z,1022.13
2019-01-05T11:28:11.019Z,1022.17
2019-01-05T11:29:11.012Z,1022.08
2019-01-05T11:30:11.021Z,1022.09
2019-01-05T11:31:11.076Z,1022.03
2019-01-05T11:32:11.066Z,1022.09
2019-01-05T11:33:11.063Z,1022.08
2019-01-05T11:34:11.067Z,1022.09
2019-01-05T11:35:11.084Z,1022.03
2019-01-05T11:36:11.116Z,1022.06
2019-01-05T11:37:11.108Z,1022.06
2019-01-05T11:38:11.111Z,1022.08
2019-01-05T11:39:11.129Z,1022.07
2019-01-05T11:40:11.140Z,1022.07
2019-01-05T11:41:11.146Z,1022.04
2019-01-05T11:42:11.170Z,1022.01
2019-01-05T11:43:11.173Z,1022.04
2019-01-05T11:44:11.185Z,1022.02
2019-01-05T11:45:11.209Z,1022.00
2019-01-05T11:46:11.212Z,1021.94
2019-01-05T11:47:11.217Z,1022.00
2019-01-05T11:48:11.232Z,1022.05
2019-01-05T11:49:12.264Z,1022.04
2019-01-05T11:50:11.267Z,1022.02
2019-01-05T11:51:11.268Z,1021.99
2019-01-05T11:52:11.282Z,1022.01
2019-01-05T11:53:11.288Z,1021.95
2019-01-05T11:54:11.300Z,1021.98
2019-01-05T11:55:11.313Z,1021.97
2019-01-05T11:56:11.329Z,1021.99
2019-01-05T11:57:11.343Z,1021.92
2019-01-05T11:58:11.357Z,1021.97
2019-01-05T11:59:11.357Z,1021.94
2019-01-05T12:00:11.369Z,1021.92
2019-01-05T12:01:11.397Z,1021.90
2019-01-05T12:02:11.406Z,1021.93
2019-01-05T12:03:11.422Z,1021.92
2019-01-05T12:04:11.832Z,1021.90
2019-01-05T12:05:11.437Z,1021.92
2019-01-05T12:06:11.446Z,1021.87